createdAt,value
2022-10-20T00:01:55.089Z,12.70
2022-10-20T00:04:21.900Z,12.70
2022-10-20T00:06:48.716Z,12.70
2022-10-20T00:09:15.617Z,12.70
2022-10-20T00:11:42.933Z,12.70
2022-10-20T00:14:09.745Z,12.70
2022-10-20T00:16:38.164Z,12.70
2022-10-20T00:19:29.985Z,12.80
2022-10-20T00:21:56.871Z,12.70
2022-10-20T00:24:23.658Z,12.70
2022-10-20T00:26:50.550Z,12.70
2022-10-20T00:31:45.122Z,12.70
2022-10-20T00:34:12.255Z,12.70
2022-10-20T00:36:39.536Z,12.80
2022-10-20T00:39:06.833Z,12.80
2022-10-20T00:41:34.223Z,12.80
2022-10-20T00:44:02.210Z,12.80
2022-10-20T00:46:42.385Z,12.80
2022-10-20T00:49:22.036Z,12.80
2022-10-20T00:51:49.765Z,12.80
2022-10-20T00:54:19.792Z,12.80
2022-10-20T00:56:47.504Z,12.80
2022-10-20T00:59:16.418Z,12.80
2022-10-20T01:01:43.541Z,12.80
2022-10-20T01:04:10.830Z,12.80
2022-10-20T01:06:37.978Z,12.80
2022-10-20T01:09:05.301Z,12.80
2022-10-20T01:11:44.532Z,12.80
2022-10-20T01:14:20.429Z,12.80
2022-10-20T01:16:58.993Z,12.80
2022-10-20T01:19:44.860Z,12.80
2022-10-20T01:22:30.639Z,12.80
2022-10-20T01:25:00.250Z,12.80
2022-10-20T01:27:35.036Z,12.80
2022-10-20T01:30:05.430Z,12.80
2022-10-20T01:32:51.040Z,12.80
2022-10-20T01:35:23.224Z,12.80
2022-10-20T01:38:08.675Z,12.80
2022-10-20T01:40:55.733Z,12.80
2022-10-20T01:43:24.261Z,12.80
2022-10-20T01:45:52.363Z,12.80
2022-10-20T01:48:21.377Z,12.80
2022-10-20T01:50:48.749Z,12.80
2022-10-20T01:53:15.705Z,12.80
2022-10-20T01:55:42.723Z,12.80
2022-10-20T01:58:15.929Z,12.80
2022-10-20T02:00:44.416Z,12.80
2022-10-20T02:03:30.252Z,12.90
2022-10-20T02:06:00.079Z,12.90
2022-10-20T02:08:45.346Z,12.80
2022-10-20T02:11:21.539Z,12.80
2022-10-20T02:13:49.937Z,12.90
2022-10-20T02:16:20.711Z,12.80
2022-10-20T02:18:48.043Z,12.80
2022-10-20T02:21:15.933Z,12.80
2022-10-20T02:23:44.782Z,12.80
2022-10-20T02:26:14.377Z,12.80
2022-10-20T02:28:43.112Z,12.80
2022-10-20T02:31:10.004Z,12.90
2022-10-20T02:33:37.176Z,12.80
2022-10-20T02:36:05.286Z,12.80
2022-10-20T02:38:32.373Z,12.90
2022-10-20T02:40:59.184Z,12.90
2022-10-20T02:43:26.046Z,12.90
2022-10-20T02:45:52.855Z,12.80
2022-10-20T02:48:19.684Z,12.90
2022-10-20T02:50:46.513Z,12.80
2022-10-20T02:53:13.320Z,12.80
2022-10-20T02:55:41.277Z,12.80
2022-10-20T02:58:08.121Z,12.80
2022-10-20T03:00:34.893Z,12.80
2022-10-20T03:03:01.699Z,12.80
2022-10-20T03:05:29.781Z,12.80
2022-10-20T03:07:56.675Z,12.80
2022-10-20T03:10:23.517Z,12.80
2022-10-20T03:12:50.361Z,12.80
2022-10-20T03:15:17.485Z,12.80
2022-10-20T03:17:44.354Z,12.80
2022-10-20T03:20:11.339Z,12.80
2022-10-20T03:22:38.189Z,12.80
2022-10-20T03:25:05.378Z,12.80
2022-10-20T03:27:32.277Z,12.90
2022-10-20T03:29:59.093Z,12.80
2022-10-20T03:32:25.871Z,12.80
2022-10-20T03:34:52.695Z,12.80
2022-10-20T03:37:19.516Z,12.80
2022-10-20T03:39:46.342Z,12.80
2022-10-20T03:42:13.139Z,12.80
2022-10-20T03:44:40.023Z,12.80
2022-10-20T03:47:06.917Z,12.90
2022-10-20T03:49:34.047Z,12.80
2022-10-20T03:52:00.946Z,12.90
2022-10-20T03:54:27.738Z,12.90
2022-10-20T03:56:54.628Z,12.90
2022-10-20T03:59:22.815Z,12.80
2022-10-20T04:01:51.343Z,12.90
2022-10-20T04:04:18.210Z,12.80
2022-10-20T04:06:45.035Z,12.90
2022-10-20T04:09:11.932Z,12.90
2022-10-20T04:11:38.832Z,12.90
2022-10-20T04:14:05.581Z,12.90
2022-10-20T04:16:32.614Z,12.90
2022-10-20T04:18:59.747Z,12.90
2022-10-20T04:21:26.679Z,12.90
2022-10-20T04:23:53.515Z,12.80
2022-10-20T04:26:20.415Z,12.90
2022-10-20T04:28:47.289Z,12.80
2022-10-20T04:31:14.469Z,12.90
2022-10-20T04:33:41.360Z,12.90
2022-10-20T04:36:10.293Z,12.90
2022-10-20T04:38:37.155Z,12.90
2022-10-20T04:41:04.913Z,12.90
2022-10-20T04:43:32.767Z,12.90
2022-10-20T04:46:02.643Z,12.90
2022-10-20T04:48:32.397Z,12.90
2022-10-20T04:50:59.957Z,12.90
2022-10-20T04:53:26.785Z,12.90
2022-10-20T04:55:54.188Z,12.90
2022-10-20T04:58:21.391Z,12.90
2022-10-20T05:00:48.277Z,12.90
2022-10-20T05:03:15.122Z,12.90
2022-10-20T05:05:41.942Z,12.90
2022-10-20T05:08:09.253Z,12.90
2022-10-20T05:10:36.768Z,12.90
2022-10-20T05:13:03.829Z,12.90
2022-10-20T05:15:30.985Z,12.90
2022-10-20T05:17:57.955Z,12.90
2022-10-20T05:20:24.760Z,12.90
2022-10-20T05:22:51.592Z,12.90
2022-10-20T05:25:35.574Z,12.90
2022-10-20T05:28:03.746Z,12.90
2022-10-20T05:30:30.623Z,12.90
2022-10-20T05:32:57.499Z,12.90
2022-10-20T05:35:24.263Z,12.90
2022-10-20T05:37:51.102Z,12.90
2022-10-20T05:40:17.865Z,12.90
2022-10-20T05:42:44.749Z,12.90
2022-10-20T05:45:11.880Z,12.90
2022-10-20T05:47:38.709Z,12.90
2022-10-20T05:50:05.730Z,12.90
2022-10-20T05:52:34.797Z,12.90
2022-10-20T05:55:02.202Z,12.90
2022-10-20T05:57:29.097Z,12.90
2022-10-20T05:59:56.003Z,12.90
2022-10-20T06:02:22.804Z,12.90
2022-10-20T06:04:49.637Z,12.90
2022-10-20T06:07:16.557Z,12.90
2022-10-20T06:09:43.423Z,12.90
2022-10-20T06:12:10.187Z,12.90
2022-10-20T06:14:37.069Z,12.90
2022-10-20T06:17:03.847Z,12.90
2022-10-20T06:19:30.892Z,12.90
2022-10-20T06:22:00.090Z,12.90
2022-10-20T06:24:28.132Z,12.90
2022-10-20T06:26:54.999Z,13.00
2022-10-20T06:29:21.932Z,12.90
2022-10-20T06:31:50.364Z,12.90
2022-10-20T06:34:21.584Z,12.90
2022-10-20T06:36:48.840Z,12.90
2022-10-20T06:39:17.938Z,12.90
2022-10-20T06:41:50.276Z,12.90
2022-10-20T06:44:19.691Z,12.90
2022-10-20T06:46:46.629Z,12.90
2022-10-20T06:49:14.101Z,12.90
2022-10-20T06:51:41.253Z,12.90
2022-10-20T06:54:09.384Z,12.90
2022-10-20T06:56:36.565Z,12.90
2022-10-20T06:59:04.063Z,13.00
2022-10-20T07:01:35.198Z,13.00
2022-10-20T07:04:04.036Z,13.00
2022-10-20T07:06:41.147Z,13.00
2022-10-20T07:09:09.398Z,13.00
2022-10-20T07:11:36.302Z,13.00
2022-10-20T07:14:03.577Z,13.00
2022-10-20T07:16:31.786Z,13.00
2022-10-20T07:18:58.854Z,13.00
2022-10-20T07:21:34.947Z,13.10
2022-10-20T07:24:04.640Z,13.00
2022-10-20T07:26:32.771Z,13.10
2022-10-20T07:29:00.579Z,13.10
2022-10-20T07:31:27.318Z,13.10
2022-10-20T07:34:13.402Z,13.10
2022-10-20T07:36:43.334Z,13.10
2022-10-20T07:39:11.597Z,13.10
2022-10-20T07:41:40.792Z,13.10
2022-10-20T07:44:07.891Z,13.10
2022-10-20T07:46:35.060Z,13.10
2022-10-20T07:49:42.786Z,13.10
2022-10-20T07:51:48.913Z,13.10
2022-10-20T07:54:15.694Z,13.10
2022-10-20T07:56:44.634Z,13.10
2022-10-20T07:59:12.065Z,13.10
2022-10-20T08:01:39.250Z,13.00
2022-10-20T08:04:08.159Z,13.00
2022-10-20T08:06:35.484Z,13.00
2022-10-20T08:09:02.438Z,13.00
2022-10-20T08:11:29.418Z,13.00
2022-10-20T08:13:56.326Z,13.00
2022-10-20T08:16:33.518Z,13.00
2022-10-20T08:19:11.390Z,13.00
2022-10-20T08:21:38.493Z,13.00
2022-10-20T08:24:05.480Z,13.10
2022-10-20T08:26:32.301Z,13.10
2022-10-20T08:28:59.311Z,13.10
2022-10-20T08:31:26.246Z,13.10
2022-10-20T08:33:53.388Z,13.00
2022-10-20T08:36:20.782Z,13.10
2022-10-20T08:38:48.321Z,13.10
2022-10-20T08:41:20.992Z,13.10
2022-10-20T08:43:50.262Z,13.00
2022-10-20T08:48:47.153Z,13.00
2022-10-20T08:51:33.310Z,13.10
2022-10-20T08:54:02.149Z,13.00
2022-10-20T08:56:30.237Z,13.00
2022-10-20T08:59:42.489Z,13.10
2022-10-20T09:02:17.239Z,13.10
2022-10-20T09:04:54.673Z,13.10
2022-10-20T09:07:59.288Z,13.10
2022-10-20T09:10:37.129Z,13.10
2022-10-20T09:13:11.362Z,13.10
2022-10-20T09:15:41.722Z,13.10
2022-10-20T09:18:13.039Z,13.10
2022-10-20T09:20:44.426Z,13.10
2022-10-20T09:23:35.236Z,13.10
2022-10-20T09:26:02.504Z,13.10
2022-10-20T09:28:38.396Z,13.00
2022-10-20T09:31:44.490Z,13.10
2022-10-20T09:34:20.942Z,13.10
2022-10-20T09:36:48.524Z,13.10
2022-10-20T09:39:22.919Z,13.10
2022-10-20T09:41:50.393Z,13.10
2022-10-20T09:44:23.836Z,13.10
2022-10-20T09:46:51.945Z,13.10
2022-10-20T09:49:37.948Z,13.10
2022-10-20T09:52:15.644Z,13.10
2022-10-20T09:54:46.101Z,13.10
2022-10-20T09:57:20.320Z,13.10
2022-10-20T09:59:49.341Z,13.10
2022-10-20T10:02:16.081Z,13.10
2022-10-20T10:04:44.227Z,13.10
2022-10-20T10:07:26.492Z,13.10
2022-10-20T10:09:56.830Z,13.10
2022-10-20T10:12:24.909Z,13.10
2022-10-20T10:14:55.255Z,13.10
2022-10-20T10:17:48.465Z,13.00
2022-10-20T10:20:16.589Z,13.00
2022-10-20T10:22:43.649Z,13.00
2022-10-20T10:25:36.852Z,13.00
2022-10-20T10:28:20.089Z,13.00
2022-10-20T10:30:49.517Z,13.00
2022-10-20T10:33:42.112Z,13.00
2022-10-20T10:36:21.365Z,13.00
2022-10-20T10:38:48.456Z,13.00
2022-10-20T10:41:27.966Z,13.00
2022-10-20T10:44:15.639Z,13.00
2022-10-20T10:49:18.705Z,13.00
2022-10-20T10:51:50.856Z,13.00
2022-10-20T10:54:20.484Z,13.00
2022-10-20T10:56:51.696Z,13.00
2022-10-20T10:59:21.997Z,13.00
2022-10-20T11:01:57.939Z,13.00
2022-10-20T11:04:43.097Z,13.00
2022-10-20T11:07:27.721Z,13.00
2022-10-20T11:10:11.024Z,13.00
2022-10-20T11:12:56.450Z,13.10
2022-10-20T11:15:28.823Z,13.10
2022-10-20T11:17:55.613Z,13.10
2022-10-20T11:20:45.481Z,13.10
2022-10-20T11:23:12.303Z,13.00
2022-10-20T11:25:44.788Z,13.10
2022-10-20T11:28:37.946Z,13.10
2022-10-20T11:31:05.675Z,13.10
2022-10-20T11:33:47.193Z,13.10
2022-10-20T11:36:19.212Z,13.10
2022-10-20T11:38:46.090Z,13.10
2022-10-20T11:41:20.888Z,13.10
2022-10-20T11:43:52.427Z,13.10
2022-10-20T11:46:22.583Z,13.10
2022-10-20T11:48:51.315Z,13.10
2022-10-20T11:51:30.396Z,13.10
2022-10-20T11:54:14.299Z,13.10
2022-10-20T11:56:59.820Z,13.10
2022-10-20T11:59:38.875Z,13.20
2022-10-20T12:02:19.277Z,13.20
2022-10-20T12:05:05.926Z,13.20
2022-10-20T12:07:35.477Z,13.20
2022-10-20T12:10:21.027Z,13.20
2022-10-20T12:13:01.992Z,13.20
2022-10-20T12:15:29.002Z,13.20
2022-10-20T12:18:03.524Z,13.20
2022-10-20T12:20:30.310Z,13.20
2022-10-20T12:23:02.422Z,13.20
2022-10-20T12:25:37.537Z,13.20
2022-10-20T12:28:19.789Z,13.20
2022-10-20T12:30:58.265Z,13.20
2022-10-20T12:33:45.393Z,13.20
2022-10-20T12:36:12.204Z,13.30
2022-10-20T12:38:39.212Z,13.20
2022-10-20T12:41:07.796Z,13.20
2022-10-20T12:43:36.692Z,13.20
2022-10-20T12:46:06.679Z,13.20
2022-10-20T12:48:35.609Z,13.20
2022-10-20T12:51:04.385Z,13.20
2022-10-20T12:53:31.412Z,13.20
2022-10-20T12:56:05.028Z,13.20
2022-10-20T12:58:33.489Z,13.20
2022-10-20T13:01:01.753Z,13.20
2022-10-20T13:03:31.386Z,13.20
2022-10-20T13:05:59.105Z,13.20
2022-10-20T13:08:25.907Z,13.20
2022-10-20T13:10:55.926Z,13.20
2022-10-20T13:13:22.725Z,13.20
2022-10-20T13:15:52.062Z,13.20
2022-10-20T13:18:24.867Z,13.20
2022-10-20T13:20:51.767Z,13.10
2022-10-20T13:23:45.125Z,13.10
2022-10-20T13:26:23.295Z,13.10
2022-10-20T13:28:51.670Z,13.10
2022-10-20T13:31:21.516Z,13.10
2022-10-20T13:34:03.975Z,13.10
2022-10-20T13:36:34.669Z,13.10
2022-10-20T13:39:10.793Z,13.10
2022-10-20T13:42:06.082Z,13.10
2022-10-20T13:44:43.780Z,13.10
2022-10-20T13:47:29.436Z,13.10
2022-10-20T13:50:25.922Z,13.10
2022-10-20T13:52:55.115Z,13.10
2022-10-20T13:55:23.237Z,13.10
2022-10-20T13:57:57.377Z,13.10
2022-10-20T14:00:28.778Z,13.10
2022-10-20T14:02:57.763Z,13.20
2022-10-20T14:05:25.226Z,13.20
2022-10-20T14:07:52.274Z,13.20
2022-10-20T14:10:32.746Z,13.20
2022-10-20T14:13:01.065Z,13.20
2022-10-20T14:15:32.827Z,13.20
2022-10-20T14:18:04.370Z,13.20
2022-10-20T14:20:32.747Z,13.20
2022-10-20T14:23:00.588Z,13.20
2022-10-20T14:25:27.895Z,13.30
2022-10-20T14:27:55.789Z,13.30
2022-10-20T14:30:23.991Z,13.30
2022-10-20T14:32:51.132Z,13.30
2022-10-20T14:35:39.863Z,13.30
2022-10-20T14:38:14.816Z,13.30
2022-10-20T14:40:41.768Z,13.30
2022-10-20T14:43:16.557Z,13.30
2022-10-20T14:45:51.872Z,13.40
2022-10-20T14:48:19.277Z,13.40
2022-10-20T14:50:46.054Z,13.40
2022-10-20T14:53:33.079Z,13.40
2022-10-20T14:56:02.492Z,13.40
2022-10-20T14:58:29.325Z,13.50
2022-10-20T15:01:14.847Z,13.50
2022-10-20T15:03:41.964Z,13.50
2022-10-20T15:06:15.115Z,13.40
2022-10-20T15:08:52.012Z,13.40
2022-10-20T15:11:25.644Z,13.40
2022-10-20T15:13:53.865Z,13.40
2022-10-20T15:16:39.644Z,13.40
2022-10-20T15:19:26.180Z,13.40
2022-10-20T15:22:00.611Z,13.40
2022-10-20T15:24:28.073Z,13.40
2022-10-20T15:26:55.520Z,13.40
2022-10-20T15:29:22.760Z,13.40
2022-10-20T15:31:54.113Z,13.40
2022-10-20T15:34:21.264Z,13.40
2022-10-20T15:36:50.383Z,13.40
2022-10-20T15:39:18.238Z,13.40
2022-10-20T15:41:45.678Z,13.40
2022-10-20T15:44:15.694Z,13.50
2022-10-20T15:46:43.461Z,13.40
2022-10-20T15:49:10.782Z,13.40
2022-10-20T15:51:40.013Z,13.40
2022-10-20T15:54:07.032Z,13.40
2022-10-20T15:56:35.328Z,13.40
2022-10-20T15:59:02.904Z,13.40
2022-10-20T16:01:30.152Z,13.40
2022-10-20T16:03:57.169Z,13.40
2022-10-20T16:06:24.465Z,13.40
2022-10-20T16:08:51.716Z,13.40
2022-10-20T16:11:19.323Z,13.50
2022-10-20T16:13:46.472Z,13.40
2022-10-20T16:16:15.018Z,13.50
2022-10-20T16:18:41.955Z,13.40
2022-10-20T16:21:08.916Z,13.40
2022-10-20T16:23:40.612Z,13.40
2022-10-20T16:26:10.370Z,13.40
2022-10-20T16:28:37.357Z,13.40
2022-10-20T16:31:11.485Z,13.40
2022-10-20T16:33:38.380Z,13.40
2022-10-20T16:38:37.374Z,13.40
2022-10-20T16:41:08.273Z,13.40
2022-10-20T16:43:38.758Z,13.40
2022-10-20T16:46:06.744Z,13.40
2022-10-20T16:48:36.967Z,13.40
2022-10-20T16:51:06.185Z,13.40
2022-10-20T16:53:33.147Z,13.40
2022-10-20T16:55:59.974Z,13.40
2022-10-20T16:58:26.949Z,13.40
2022-10-20T17:01:01.425Z,13.40
2022-10-20T17:03:29.628Z,13.40
2022-10-20T17:06:01.369Z,13.40
2022-10-20T17:08:28.525Z,13.40
2022-10-20T17:10:56.559Z,13.40
2022-10-20T17:13:23.626Z,13.40
2022-10-20T17:15:50.972Z,13.40
2022-10-20T17:18:18.100Z,13.40
2022-10-20T17:20:45.562Z,13.40
2022-10-20T17:23:12.542Z,13.40
2022-10-20T17:25:39.553Z,13.40
2022-10-20T17:28:06.606Z,13.40
2022-10-20T17:30:33.614Z,13.40
2022-10-20T17:33:00.628Z,13.40
2022-10-20T17:35:28.663Z,13.40
2022-10-20T17:37:55.572Z,13.40
2022-10-20T17:40:22.600Z,13.40
2022-10-20T17:42:49.564Z,13.40
2022-10-20T17:45:16.638Z,13.40
2022-10-20T17:47:43.608Z,13.40
2022-10-20T17:50:10.513Z,13.30
2022-10-20T17:52:37.956Z,13.30
2022-10-20T17:55:05.488Z,13.30
2022-10-20T17:57:32.436Z,13.30
2022-10-20T18:00:00.450Z,13.30
2022-10-20T18:02:32.483Z,13.30
2022-10-20T18:04:59.412Z,13.30
2022-10-20T18:07:26.266Z,13.30
2022-10-20T18:09:53.518Z,13.30
2022-10-20T18:12:20.474Z,13.30
2022-10-20T18:14:47.353Z,13.30
2022-10-20T18:17:17.999Z,13.30
2022-10-20T18:19:45.079Z,13.30
2022-10-20T18:22:11.941Z,13.30
2022-10-20T18:24:38.911Z,13.30
2022-10-20T18:27:06.185Z,13.30
2022-10-20T18:29:33.044Z,13.30
2022-10-20T18:31:59.885Z,13.30
2022-10-20T18:34:26.797Z,13.30
2022-10-20T18:36:54.612Z,13.30
2022-10-20T18:39:21.556Z,13.30
2022-10-20T18:41:50.707Z,13.30
2022-10-20T18:44:18.510Z,13.30
2022-10-20T18:46:46.303Z,13.30
2022-10-20T18:49:14.690Z,13.30
2022-10-20T18:51:41.719Z,13.30
2022-10-20T18:54:08.796Z,13.30
2022-10-20T18:56:35.875Z,13.30
2022-10-20T18:59:07.983Z,13.30
2022-10-20T19:01:36.181Z,13.30
2022-10-20T19:04:03.606Z,13.30
2022-10-20T19:06:32.117Z,13.30
2022-10-20T19:09:00.486Z,13.30
2022-10-20T19:11:29.800Z,13.30
2022-10-20T19:13:57.084Z,13.30
2022-10-20T19:16:25.137Z,13.30
2022-10-20T19:18:53.946Z,13.30
2022-10-20T19:23:56.186Z,13.30
2022-10-20T19:26:24.528Z,13.30
2022-10-20T19:28:57.610Z,13.30
2022-10-20T19:31:27.525Z,13.30
2022-10-20T19:33:56.121Z,13.30
2022-10-20T19:36:23.605Z,13.30
2022-10-20T19:38:50.983Z,13.30
2022-10-20T19:41:18.094Z,13.30
2022-10-20T19:43:45.097Z,13.20
2022-10-20T19:46:13.797Z,13.30
2022-10-20T19:48:40.782Z,13.30
2022-10-20T19:51:09.843Z,13.20
2022-10-20T19:53:37.375Z,13.30
2022-10-20T19:56:04.729Z,13.30
2022-10-20T19:58:31.620Z,13.30
2022-10-20T20:00:59.481Z,13.30
2022-10-20T20:03:26.573Z,13.20
2022-10-20T20:06:00.572Z,13.20
2022-10-20T20:08:31.658Z,13.30
2022-10-20T20:10:58.948Z,13.30
2022-10-20T20:13:26.456Z,13.30
2022-10-20T20:15:53.736Z,13.20
2022-10-20T20:18:21.032Z,13.20
2022-10-20T20:20:48.849Z,13.20
2022-10-20T20:23:16.082Z,13.20
2022-10-20T20:25:44.294Z,13.20
2022-10-20T20:28:11.437Z,13.20
2022-10-20T20:30:38.604Z,13.20
2022-10-20T20:33:06.088Z,13.10
2022-10-20T20:35:33.081Z,13.10
2022-10-20T20:38:00.298Z,13.10
2022-10-20T20:40:27.797Z,13.10
2022-10-20T20:42:54.638Z,13.10
2022-10-20T20:45:22.521Z,13.10
2022-10-20T20:47:49.368Z,13.10
2022-10-20T20:50:16.370Z,13.10
2022-10-20T20:52:43.384Z,13.00
2022-10-20T20:55:10.347Z,13.00
2022-10-20T20:57:37.583Z,13.00
2022-10-20T21:00:05.905Z,13.00
2022-10-20T21:02:32.709Z,13.00
2022-10-20T21:05:09.972Z,13.00
2022-10-20T21:07:37.663Z,13.00
2022-10-20T21:10:05.748Z,12.90
2022-10-20T21:12:35.332Z,12.90
2022-10-20T21:15:02.633Z,12.90
2022-10-20T21:17:30.705Z,12.90
2022-10-20T21:19:57.662Z,12.90
2022-10-20T21:22:25.000Z,12.90
2022-10-20T21:24:51.845Z,12.90
2022-10-20T21:27:21.829Z,12.90
2022-10-20T21:29:51.174Z,12.90
2022-10-20T21:32:20.404Z,12.90
2022-10-20T21:34:47.364Z,12.90
2022-10-20T21:37:14.115Z,12.90
2022-10-20T21:39:40.957Z,12.90
2022-10-20T21:42:07.978Z,12.90
2022-10-20T21:44:34.895Z,12.90
2022-10-20T21:47:01.794Z,12.90
2022-10-20T21:49:28.728Z,12.90
2022-10-20T21:51:56.580Z,12.90
2022-10-20T21:54:27.586Z,12.90
2022-10-20T21:56:54.832Z,12.90
2022-10-20T21:59:24.033Z,12.80
2022-10-20T22:01:51.881Z,12.80
2022-10-20T22:04:19.362Z,12.80
2022-10-20T22:06:46.449Z,12.90
2022-10-20T22:09:13.797Z,12.80
2022-10-20T22:11:42.374Z,12.90
2022-10-20T22:14:09.330Z,12.90
2022-10-20T22:16:39.909Z,12.90
2022-10-20T22:19:09.142Z,12.90
2022-10-20T22:21:37.180Z,12.90
2022-10-20T22:24:04.844Z,12.90
2022-10-20T22:26:31.727Z,12.90
2022-10-20T22:29:02.162Z,12.90
2022-10-20T22:31:29.072Z,12.90
2022-10-20T22:33:56.897Z,12.90
2022-10-20T22:36:24.320Z,12.90
2022-10-20T22:38:51.146Z,12.90
2022-10-20T22:41:18.062Z,12.80
2022-10-20T22:43:44.943Z,12.80
2022-10-20T22:46:11.793Z,12.80
2022-10-20T22:48:38.582Z,12.80
2022-10-20T22:51:06.797Z,12.80
2022-10-20T22:53:33.814Z,12.70
2022-10-20T22:56:08.632Z,12.70
2022-10-20T22:58:35.905Z,12.70
2022-10-20T23:01:07.159Z,12.70
2022-10-20T23:03:34.088Z,12.60
2022-10-20T23:06:00.913Z,12.60
2022-10-20T23:08:30.658Z,12.60
2022-10-20T23:10:59.671Z,12.60
2022-10-20T23:13:27.513Z,12.50
2022-10-20T23:15:54.330Z,12.50
2022-10-20T23:18:21.206Z,12.50
2022-10-20T23:20:48.150Z,12.50
2022-10-20T23:23:14.941Z,12.50
2022-10-20T23:25:42.325Z,12.50
2022-10-20T23:28:09.621Z,12.50
2022-10-20T23:30:36.862Z,12.50
2022-10-20T23:33:03.754Z,12.40
2022-10-20T23:35:30.608Z,12.40
2022-10-20T23:37:57.425Z,12.30
2022-10-20T23:40:25.101Z,12.40
2022-10-20T23:42:51.866Z,12.30
2022-10-20T23:45:18.699Z,12.30
2022-10-20T23:47:45.534Z,12.30
2022-10-20T23:50:12.461Z,12.30
2022-10-20T23:55:13.300Z,12.30
2022-10-20T23:57:42.425Z,12.30
